• Join FlightAware (Why Join?)
  • Login
  • US Flag 
03:34PM EST


 

Airport Tracker/Info


-or-


 

Live Flight TrackerFlight Track Log ✈ PDT4314 ✈ 09-Feb-2014 ✈ KPHL - KBGM

Flight Track Log - Related Links

Times and Time Zones

All times are in EST time to prevent confusion due to time zone crossing. See the PDT4314 flight status page for this flight to view local times or setup timezone preferences in your user account.

Time Position Orientation Groundspeed Altitude Reporting Facility
EST Latitude Longitude Course Direction KTS MPH feet Rate Location/Type
06:34PM 39.9000 -75.2000 57° Northeast 124 143 1,200  Level Philadelphia TRACON
06:35PM 39.9167 -75.1667 57° Northeast 156 180 2,300 1,140 Climbing Philadelphia TRACON
06:36PM 39.9667 -75.1333 27° Northeast 170 196 3,500 1,440 Climbing Philadelphia TRACON
06:37PM 40.0167 -75.1500 346° North 165 190 5,200 1,380 Climbing Philadelphia TRACON
06:38PM 40.0500 -75.1833 323° Northwest 141 162 6,500 1,140 Climbing Philadelphia TRACON
06:39PM 40.0833 -75.2167 323° Northwest 150 173 7,700 1,140 Climbing Philadelphia TRACON
06:40PM 40.1000 -75.2500 303° West 152 175 8,800 600 Climbing Philadelphia TRACON
06:41PM 40.1322 -75.2989 311° West 164 189 9,000 180 Climbing New York Center
06:42PM 40.1606 -75.3644 300° West 191 220 9,200 360 Climbing New York Center
06:45PM 40.2383 -75.5378 331° Northwest 201 231 10,700 600 Climbing New York Center
06:46PM 40.2881 -75.5700 334° Northwest 194 223 11,800 600 Climbing New York Center
06:47PM 40.3306 -75.6014 331° Northwest 183 211 12,000 60 Climbing New York Center
06:48PM 40.3869 -75.6353 335° Northwest 208 239 12,000 540 Level New York Center
06:49PM 40.4378 -75.6672 334° Northwest 194 223 13,200 480 Climbing New York Center
06:52PM 40.5775 -75.7675 332° Northwest 208 239 14,000 180 Climbing New York Center
06:53PM 40.6356 -75.8044 334° Northwest 219 252 14,000  Level New York Center
06:54PM 40.6919 -75.8453 331° Northwest 219 252 14,000  Level New York Center
06:55PM 40.7519 -75.8825 335° Northwest 224 258 14,000  Level New York Center
06:56PM 40.8053 -75.9192 333° Northwest 224 258 14,100 600 Climbing New York Center
06:58PM 40.9069 -75.9869 332° Northwest 184 212 15,900 360 Climbing New York Center
07:01PM 41.0603 -76.0961 21° North 211 243 16,100  Climbing New York Center
07:02PM 41.1189 -76.1319 335° Northwest 218 251 16,100  Level New York Center
07:03PM 41.1725 -76.1669 334° Northwest 221 254 16,100  Level New York Center
07:04PM 41.2283 -76.2094 330° Northwest 221 254 16,100  Level New York Center
07:05PM 41.3039 -76.1994 North 268 308 16,100  Level New York Center
07:06PM 41.3811 -76.1894 North 265 305 16,100 -360 Level New York Center
07:07PM 41.3153 -76.1924 21° North  Level FlightAware Approximate
07:08PM 41.4517 -76.1925 358° North 263 303 15,400  Level New York Center
07:09PM 41.5342 -76.1897 North 281 323 14,300 -1,020 Descending New York Center
07:11PM 41.6992 -76.1728 North 282 325 12,300 -1,020 Descending New York Center
07:12PM 41.7733 -76.1733 360° North 279 321 11,300 -1,020 Descending New York Center
07:13PM 41.8533 -76.1658 North 278 320 10,300 -1,020 Descending New York Center
07:14PM 41.9250 -76.1544 North 274 315 9,300 -1,020 Descending New York Center
07:15PM 42.0042 -76.1603 357° North 252 290 8,200 -1,020 Descending New York Center
07:16PM 42.0650 -76.1822 345° North 252 290 7,300 -960 Descending New York Center
07:17PM 42.1319 -76.2028 347° North 251 289 6,300 -660 Descending New York Center
07:18PM 42.1975 -76.2206 349° North 244 281 6,000 -360 Descending New York Center
07:19PM 42.2597 -76.2369 349° North 233 268 5,600 -780 Descending New York Center
07:20PM 42.3203 -76.2122 17° North 251 289 4,500 -1,080 Descending New York Center
07:21PM 42.3358 -76.1133 78° East 250 288 3,400 -540 Descending New York Center
07:23PM 42.2619 -76.0247 148° Southeast 189 217 2,900 -300 Descending New York Center
07:25PM 42.2084 -75.9796 90° East  Level Estimated
07:32PM 42.2084 -75.9796 90° East  Level Estimated
07:33PM 42.2084 -75.9796 90° East  Level Estimated
07:34PM 42.2084 -75.9796 90° East  Level Estimated
07:35PM 42.2084 -75.9796 90° East  Level Estimated